sensor_id;sensor_type;location;lat;lon;timestamp;P1;durP1;ratioP1;P2;durP2;ratioP2
71671;SDS011;67659;45.554;11.812;2023-04-24T00:01:48;9.18;;;5.78;;
71671;SDS011;67659;45.554;11.812;2023-04-24T00:04:15;8.95;;;5.32;;
71671;SDS011;67659;45.554;11.812;2023-04-24T00:06:43;11.25;;;6.18;;
71671;SDS011;67659;45.554;11.812;2023-04-24T00:09:09;8.87;;;5.40;;
71671;SDS011;67659;45.554;11.812;2023-04-24T00:11:35;8.80;;;5.72;;
71671;SDS011;67659;45.554;11.812;2023-04-24T00:14:01;9.07;;;5.30;;
71671;SDS011;67659;45.554;11.812;2023-04-24T00:16:27;8.60;;;5.60;;
71671;SDS011;67659;45.554;11.812;2023-04-24T00:18:54;8.82;;;5.40;;
71671;SDS011;67659;45.554;11.812;2023-04-24T00:21:20;9.43;;;5.37;;
71671;SDS011;67659;45.554;11.812;2023-04-24T00:23:46;9.32;;;5.65;;
71671;SDS011;67659;45.554;11.812;2023-04-24T00:26:13;8.23;;;5.30;;
71671;SDS011;67659;45.554;11.812;2023-04-24T00:28:39;8.23;;;5.53;;
71671;SDS011;67659;45.554;11.812;2023-04-24T00:31:05;8.57;;;5.33;;
71671;SDS011;67659;45.554;11.812;2023-04-24T00:33:31;8.20;;;4.95;;
71671;SDS011;67659;45.554;11.812;2023-04-24T00:35:57;8.60;;;5.60;;
71671;SDS011;67659;45.554;11.812;2023-04-24T00:38:24;8.53;;;5.27;;
71671;SDS011;67659;45.554;11.812;2023-04-24T00:40:50;8.38;;;5.38;;
71671;SDS011;67659;45.554;11.812;2023-04-24T00:43:16;8.38;;;5.25;;
71671;SDS011;67659;45.554;11.812;2023-04-24T00:45:42;7.38;;;4.80;;
71671;SDS011;67659;45.554;11.812;2023-04-24T00:48:08;9.18;;;5.30;;
71671;SDS011;67659;45.554;11.812;2023-04-24T00:50:36;8.23;;;5.17;;
71671;SDS011;67659;45.554;11.812;2023-04-24T00:53:03;7.70;;;5.30;;
71671;SDS011;67659;45.554;11.812;2023-04-24T00:55:29;7.38;;;4.80;;
71671;SDS011;67659;45.554;11.812;2023-04-24T00:57:55;7.65;;;5.38;;
71671;SDS011;67659;45.554;11.812;2023-04-24T01:00:21;8.80;;;5.20;;
71671;SDS011;67659;45.554;11.812;2023-04-24T01:02:47;8.40;;;5.15;;
71671;SDS011;67659;45.554;11.812;2023-04-24T01:05:14;7.60;;;4.90;;
71671;SDS011;67659;45.554;11.812;2023-04-24T01:07:43;8.80;;;5.28;;
71671;SDS011;67659;45.554;11.812;2023-04-24T01:10:11;8.17;;;5.00;;
71671;SDS011;67659;45.554;11.812;2023-04-24T01:12:37;9.65;;;5.63;;
71671;SDS011;67659;45.554;11.812;2023-04-24T01:15:04;7.60;;;4.80;;
71671;SDS011;67659;45.554;11.812;2023-04-24T01:17:31;8.15;;;4.93;;
71671;SDS011;67659;45.554;11.812;2023-04-24T01:19:57;8.25;;;5.32;;
71671;SDS011;67659;45.554;11.812;2023-04-24T01:22:25;7.90;;;4.90;;
71671;SDS011;67659;45.554;11.812;2023-04-24T01:24:51;8.05;;;5.00;;
71671;SDS011;67659;45.554;11.812;2023-04-24T01:27:18;8.77;;;5.22;;
71671;SDS011;67659;45.554;11.812;2023-04-24T01:29:45;7.88;;;4.75;;
71671;SDS011;67659;45.554;11.812;2023-04-24T01:32:14;9.13;;;5.10;;
71671;SDS011;67659;45.554;11.812;2023-04-24T01:34:41;8.30;;;4.93;;
71671;SDS011;67659;45.554;11.812;2023-04-24T01:37:07;8.43;;;5.03;;
71671;SDS011;67659;45.554;11.812;2023-04-24T01:39:33;8.00;;;4.68;;
71671;SDS011;67659;45.554;11.812;2023-04-24T01:41:59;8.75;;;4.80;;
71671;SDS011;67659;45.554;11.812;2023-04-24T01:44:27;8.20;;;4.97;;
71671;SDS011;67659;45.554;11.812;2023-04-24T01:46:53;7.65;;;4.90;;
71671;SDS011;67659;45.554;11.812;2023-04-24T01:49:20;8.18;;;4.80;;
71671;SDS011;67659;45.554;11.812;2023-04-24T01:51:46;8.77;;;4.68;;
71671;SDS011;67659;45.554;11.812;2023-04-24T01:54:12;7.43;;;4.80;;
71671;SDS011;67659;45.554;11.812;2023-04-24T01:56:40;8.15;;;5.05;;
71671;SDS011;67659;45.554;11.812;2023-04-24T01:59:08;7.82;;;4.88;;
71671;SDS011;67659;45.554;11.812;2023-04-24T02:01:36;7.18;;;4.75;;
71671;SDS011;67659;45.554;11.812;2023-04-24T02:04:02;7.90;;;4.82;;
71671;SDS011;67659;45.554;11.812;2023-04-24T02:06:29;7.57;;;4.73;;
71671;SDS011;67659;45.554;11.812;2023-04-24T02:08:56;7.30;;;4.68;;
71671;SDS011;67659;45.554;11.812;2023-04-24T02:11:23;7.85;;;4.72;;
71671;SDS011;67659;45.554;11.812;2023-04-24T02:13:49;7.22;;;4.30;;
71671;SDS011;67659;45.554;11.812;2023-04-24T02:16:15;8.07;;;4.63;;
71671;SDS011;67659;45.554;11.812;2023-04-24T02:18:41;7.57;;;4.45;;
71671;SDS011;67659;45.554;11.812;2023-04-24T02:21:07;7.57;;;4.35;;
71671;SDS011;67659;45.554;11.812;2023-04-24T02:23:32;7.60;;;4.90;;
71671;SDS011;67659;45.554;11.812;2023-04-24T02:25:58;8.15;;;4.88;;
71671;SDS011;67659;45.554;11.812;2023-04-24T02:28:24;7.23;;;4.57;;
71671;SDS011;67659;45.554;11.812;2023-04-24T02:30:50;8.43;;;4.70;;
71671;SDS011;67659;45.554;11.812;2023-04-24T02:33:16;8.20;;;4.50;;
71671;SDS011;67659;45.554;11.812;2023-04-24T02:35:42;7.07;;;4.43;;
71671;SDS011;67659;45.554;11.812;2023-04-24T02:38:07;7.10;;;4.67;;
71671;SDS011;67659;45.554;11.812;2023-04-24T02:40:33;7.60;;;4.63;;
71671;SDS011;67659;45.554;11.812;2023-04-24T02:42:59;7.17;;;4.20;;
71671;SDS011;67659;45.554;11.812;2023-04-24T02:45:25;7.78;;;4.60;;
71671;SDS011;67659;45.554;11.812;2023-04-24T02:47:50;7.27;;;4.53;;
71671;SDS011;67659;45.554;11.812;2023-04-24T02:50:16;7.35;;;4.50;;
71671;SDS011;67659;45.554;11.812;2023-04-24T02:52:42;9.27;;;4.88;;
71671;SDS011;67659;45.554;11.812;2023-04-24T02:55:08;7.10;;;4.30;;
71671;SDS011;67659;45.554;11.812;2023-04-24T02:57:34;7.55;;;4.68;;
71671;SDS011;67659;45.554;11.812;2023-04-24T03:00:00;8.13;;;4.60;;
71671;SDS011;67659;45.554;11.812;2023-04-24T03:02:26;8.40;;;4.83;;
71671;SDS011;67659;45.554;11.812;2023-04-24T03:04:51;7.18;;;4.03;;
71671;SDS011;67659;45.554;11.812;2023-04-24T03:07:17;7.57;;;4.47;;
71671;SDS011;67659;45.554;11.812;2023-04-24T03:09:45;7.30;;;4.60;;
71671;SDS011;67659;45.554;11.812;2023-04-24T03:12:12;7.33;;;4.37;;
71671;SDS011;67659;45.554;11.812;2023-04-24T03:14:38;7.35;;;4.50;;
71671;SDS011;67659;45.554;11.812;2023-04-24T03:17:03;7.10;;;4.30;;
71671;SDS011;67659;45.554;11.812;2023-04-24T03:19:29;7.60;;;4.70;;
71671;SDS011;67659;45.554;11.812;2023-04-24T03:21:55;8.15;;;4.45;;
71671;SDS011;67659;45.554;11.812;2023-04-24T03:24:21;8.17;;;4.43;;
71671;SDS011;67659;45.554;11.812;2023-04-24T03:26:47;7.43;;;4.35;;
71671;SDS011;67659;45.554;11.812;2023-04-24T03:29:13;7.22;;;4.13;;
71671;SDS011;67659;45.554;11.812;2023-04-24T03:31:39;7.17;;;4.40;;
71671;SDS011;67659;45.554;11.812;2023-04-24T03:34:04;9.07;;;4.47;;
71671;SDS011;67659;45.554;11.812;2023-04-24T03:36:30;7.30;;;4.40;;
71671;SDS011;67659;45.554;11.812;2023-04-24T03:38:56;6.93;;;4.28;;
71671;SDS011;67659;45.554;11.812;2023-04-24T03:41:22;6.68;;;4.30;;
71671;SDS011;67659;45.554;11.812;2023-04-24T03:43:48;6.73;;;4.10;;
71671;SDS011;67659;45.554;11.812;2023-04-24T03:46:13;6.57;;;4.03;;
71671;SDS011;67659;45.554;11.812;2023-04-24T03:48:40;6.80;;;4.10;;
71671;SDS011;67659;45.554;11.812;2023-04-24T03:51:05;8.13;;;4.13;;
71671;SDS011;67659;45.554;11.812;2023-04-24T03:53:31;7.72;;;4.40;;
71671;SDS011;67659;45.554;11.812;2023-04-24T03:55:57;6.60;;;4.30;;
71671;SDS011;67659;45.554;11.812;2023-04-24T03:58:23;8.10;;;4.20;;
71671;SDS011;67659;45.554;11.812;2023-04-24T04:00:49;6.95;;;3.88;;
71671;SDS011;67659;45.554;11.812;2023-04-24T04:03:15;6.83;;;4.07;;
71671;SDS011;67659;45.554;11.812;2023-04-24T04:05:41;6.72;;;4.20;;
71671;SDS011;67659;45.554;11.812;2023-04-24T04:08:07;7.00;;;4.23;;
71671;SDS011;67659;45.554;11.812;2023-04-24T04:10:32;6.80;;;4.05;;
71671;SDS011;67659;45.554;11.812;2023-04-24T04:12:58;7.23;;;4.50;;
71671;SDS011;67659;45.554;11.812;2023-04-24T04:15:25;7.32;;;4.10;;
71671;SDS011;67659;45.554;11.812;2023-04-24T04:17:50;7.15;;;4.40;;
71671;SDS011;67659;45.554;11.812;2023-04-24T04:20:16;6.70;;;4.00;;
71671;SDS011;67659;45.554;11.812;2023-04-24T04:22:42;7.73;;;4.40;;
71671;SDS011;67659;45.554;11.812;2023-04-24T04:25:08;6.95;;;4.20;;
71671;SDS011;67659;45.554;11.812;2023-04-24T04:27:34;6.57;;;3.87;;
71671;SDS011;67659;45.554;11.812;2023-04-24T04:30:00;7.43;;;3.90;;
71671;SDS011;67659;45.554;11.812;2023-04-24T04:32:33;6.95;;;4.15;;
71671;SDS011;67659;45.554;11.812;2023-04-24T04:35:00;7.03;;;4.43;;
71671;SDS011;67659;45.554;11.812;2023-04-24T04:37:30;6.43;;;4.10;;
71671;SDS011;67659;45.554;11.812;2023-04-24T04:39:58;7.63;;;4.10;;
71671;SDS011;67659;45.554;11.812;2023-04-24T04:42:25;7.28;;;4.10;;
71671;SDS011;67659;45.554;11.812;2023-04-24T04:44:52;6.60;;;4.20;;
71671;SDS011;67659;45.554;11.812;2023-04-24T04:47:18;8.13;;;4.00;;
71671;SDS011;67659;45.554;11.812;2023-04-24T04:49:48;6.60;;;4.18;;
71671;SDS011;67659;45.554;11.812;2023-04-24T04:52:14;7.67;;;4.03;;
71671;SDS011;67659;45.554;11.812;2023-04-24T04:54:41;7.28;;;4.30;;
71671;SDS011;67659;45.554;11.812;2023-04-24T04:57:07;6.95;;;4.07;;
71671;SDS011;67659;45.554;11.812;2023-04-24T04:59:34;8.67;;;4.00;;
71671;SDS011;67659;45.554;11.812;2023-04-24T05:02:00;7.70;;;3.80;;
71671;SDS011;67659;45.554;11.812;2023-04-24T05:04:26;6.82;;;4.25;;
71671;SDS011;67659;45.554;11.812;2023-04-24T05:06:52;7.05;;;4.10;;
71671;SDS011;67659;45.554;11.812;2023-04-24T05:09:18;7.47;;;4.10;;
71671;SDS011;67659;45.554;11.812;2023-04-24T05:11:44;7.50;;;3.97;;
71671;SDS011;67659;45.554;11.812;2023-04-24T05:14:12;8.52;;;4.60;;
71671;SDS011;67659;45.554;11.812;2023-04-24T05:16:38;6.88;;;4.05;;
71671;SDS011;67659;45.554;11.812;2023-04-24T05:19:04;7.40;;;3.97;;
71671;SDS011;67659;45.554;11.812;2023-04-24T05:21:31;6.75;;;4.20;;
71671;SDS011;67659;45.554;11.812;2023-04-24T05:23:56;8.80;;;4.75;;
71671;SDS011;67659;45.554;11.812;2023-04-24T05:26:22;7.07;;;4.10;;
71671;SDS011;67659;45.554;11.812;2023-04-24T05:28:48;8.33;;;4.50;;
71671;SDS011;67659;45.554;11.812;2023-04-24T05:31:15;8.05;;;4.78;;
71671;SDS011;67659;45.554;11.812;2023-04-24T05:33:42;8.07;;;4.40;;
71671;SDS011;67659;45.554;11.812;2023-04-24T05:36:08;7.85;;;4.45;;
71671;SDS011;67659;45.554;11.812;2023-04-24T05:38:34;7.33;;;4.33;;
71671;SDS011;67659;45.554;11.812;2023-04-24T05:41:00;7.63;;;4.20;;
71671;SDS011;67659;45.554;11.812;2023-04-24T05:43:26;8.05;;;4.22;;
71671;SDS011;67659;45.554;11.812;2023-04-24T05:45:53;8.38;;;4.40;;
71671;SDS011;67659;45.554;11.812;2023-04-24T05:48:19;8.87;;;4.50;;
71671;SDS011;67659;45.554;11.812;2023-04-24T05:50:45;9.18;;;4.20;;
71671;SDS011;67659;45.554;11.812;2023-04-24T05:53:13;11.18;;;6.90;;
71671;SDS011;67659;45.554;11.812;2023-04-24T05:55:38;18.08;;;10.50;;
71671;SDS011;67659;45.554;11.812;2023-04-24T05:58:05;16.97;;;10.13;;
71671;SDS011;67659;45.554;11.812;2023-04-24T06:00:32;14.93;;;9.10;;
71671;SDS011;67659;45.554;11.812;2023-04-24T06:03:02;18.60;;;10.98;;
71671;SDS011;67659;45.554;11.812;2023-04-24T06:05:28;16.60;;;8.93;;
71671;SDS011;67659;45.554;11.812;2023-04-24T06:07:55;17.60;;;10.65;;
71671;SDS011;67659;45.554;11.812;2023-04-24T06:10:21;14.30;;;9.17;;
71671;SDS011;67659;45.554;11.812;2023-04-24T06:12:47;15.82;;;9.30;;
71671;SDS011;67659;45.554;11.812;2023-04-24T06:15:13;15.15;;;9.73;;
71671;SDS011;67659;45.554;11.812;2023-04-24T06:17:39;15.60;;;10.20;;
71671;SDS011;67659;45.554;11.812;2023-04-24T06:20:05;16.15;;;10.02;;
71671;SDS011;67659;45.554;11.812;2023-04-24T06:22:33;16.52;;;10.27;;
71671;SDS011;67659;45.554;11.812;2023-04-24T06:24:59;16.17;;;10.45;;
71671;SDS011;67659;45.554;11.812;2023-04-24T06:27:26;17.75;;;9.93;;
71671;SDS011;67659;45.554;11.812;2023-04-24T06:29:52;15.57;;;9.80;;
71671;SDS011;67659;45.554;11.812;2023-04-24T06:32:21;16.25;;;9.70;;
71671;SDS011;67659;45.554;11.812;2023-04-24T06:34:48;16.48;;;9.55;;
71671;SDS011;67659;45.554;11.812;2023-04-24T06:37:13;16.03;;;9.83;;
71671;SDS011;67659;45.554;11.812;2023-04-24T06:39:41;16.65;;;9.93;;
71671;SDS011;67659;45.554;11.812;2023-04-24T06:42:07;15.20;;;9.40;;
71671;SDS011;67659;45.554;11.812;2023-04-24T06:44:34;16.73;;;9.30;;
71671;SDS011;67659;45.554;11.812;2023-04-24T06:47:06;14.55;;;9.10;;
71671;SDS011;67659;45.554;11.812;2023-04-24T06:49:34;13.97;;;8.60;;
71671;SDS011;67659;45.554;11.812;2023-04-24T06:52:02;14.48;;;8.45;;
71671;SDS011;67659;45.554;11.812;2023-04-24T06:54:29;15.48;;;9.38;;
71671;SDS011;67659;45.554;11.812;2023-04-24T06:56:56;16.15;;;8.20;;
71671;SDS011;67659;45.554;11.812;2023-04-24T06:59:23;14.93;;;8.27;;
71671;SDS011;67659;45.554;11.812;2023-04-24T07:01:49;14.10;;;7.33;;
71671;SDS011;67659;45.554;11.812;2023-04-24T07:04:16;12.15;;;7.10;;
71671;SDS011;67659;45.554;11.812;2023-04-24T07:06:42;16.98;;;7.85;;
71671;SDS011;67659;45.554;11.812;2023-04-24T07:09:11;14.90;;;7.50;;
71671;SDS011;67659;45.554;11.812;2023-04-24T07:11:38;11.77;;;6.70;;
71671;SDS011;67659;45.554;11.812;2023-04-24T07:14:05;12.20;;;6.50;;
71671;SDS011;67659;45.554;11.812;2023-04-24T07:16:32;10.10;;;6.05;;
71671;SDS011;67659;45.554;11.812;2023-04-24T07:18:58;11.52;;;6.60;;
71671;SDS011;67659;45.554;11.812;2023-04-24T07:21:24;12.40;;;6.88;;
71671;SDS011;67659;45.554;11.812;2023-04-24T07:23:50;11.38;;;5.97;;
71671;SDS011;67659;45.554;11.812;2023-04-24T07:26:16;14.70;;;7.07;;
71671;SDS011;67659;45.554;11.812;2023-04-24T07:28:42;11.52;;;6.18;;
71671;SDS011;67659;45.554;11.812;2023-04-24T07:31:08;13.15;;;5.80;;
71671;SDS011;67659;45.554;11.812;2023-04-24T07:33:36;14.03;;;5.53;;
71671;SDS011;67659;45.554;11.812;2023-04-24T07:36:03;12.05;;;5.75;;
71671;SDS011;67659;45.554;11.812;2023-04-24T07:38:29;13.52;;;6.03;;
71671;SDS011;67659;45.554;11.812;2023-04-24T07:40:56;14.50;;;5.70;;
71671;SDS011;67659;45.554;11.812;2023-04-24T07:43:22;12.73;;;5.57;;
71671;SDS011;67659;45.554;11.812;2023-04-24T07:45:50;11.53;;;5.40;;
71671;SDS011;67659;45.554;11.812;2023-04-24T07:48:16;11.30;;;4.60;;
71671;SDS011;67659;45.554;11.812;2023-04-24T07:50:43;12.82;;;5.30;;
71671;SDS011;67659;45.554;11.812;2023-04-24T07:53:09;9.95;;;4.82;;
71671;SDS011;67659;45.554;11.812;2023-04-24T07:55:35;10.90;;;4.70;;
71671;SDS011;67659;45.554;11.812;2023-04-24T07:58:01;10.93;;;4.97;;
71671;SDS011;67659;45.554;11.812;2023-04-24T08:00:27;11.57;;;5.30;;
71671;SDS011;67659;45.554;11.812;2023-04-24T08:02:53;11.02;;;4.55;;
71671;SDS011;67659;45.554;11.812;2023-04-24T08:05:19;11.30;;;4.57;;
71671;SDS011;67659;45.554;11.812;2023-04-24T08:07:45;10.23;;;4.40;;
71671;SDS011;67659;45.554;11.812;2023-04-24T08:10:15;11.70;;;4.90;;
71671;SDS011;67659;45.554;11.812;2023-04-24T08:12:41;9.05;;;4.72;;
71671;SDS011;67659;45.554;11.812;2023-04-24T08:15:07;9.10;;;4.60;;
71671;SDS011;67659;45.554;11.812;2023-04-24T08:17:34;10.40;;;4.73;;
71671;SDS011;67659;45.554;11.812;2023-04-24T08:20:00;9.35;;;4.10;;
71671;SDS011;67659;45.554;11.812;2023-04-24T08:22:27;8.45;;;4.20;;
71671;SDS011;67659;45.554;11.812;2023-04-24T08:24:54;8.52;;;4.53;;
71671;SDS011;67659;45.554;11.812;2023-04-24T08:27:22;11.60;;;4.35;;
71671;SDS011;67659;45.554;11.812;2023-04-24T08:29:48;8.27;;;4.40;;
71671;SDS011;67659;45.554;11.812;2023-04-24T08:32:14;10.10;;;4.40;;
71671;SDS011;67659;45.554;11.812;2023-04-24T08:34:40;8.27;;;4.32;;
71671;SDS011;67659;45.554;11.812;2023-04-24T08:37:06;8.48;;;4.28;;
71671;SDS011;67659;45.554;11.812;2023-04-24T08:39:33;8.50;;;4.27;;
71671;SDS011;67659;45.554;11.812;2023-04-24T08:42:00;8.48;;;4.13;;
71671;SDS011;67659;45.554;11.812;2023-04-24T08:44:32;8.93;;;4.25;;
71671;SDS011;67659;45.554;11.812;2023-04-24T08:46:58;8.35;;;4.10;;
71671;SDS011;67659;45.554;11.812;2023-04-24T08:49:24;7.65;;;4.00;;
71671;SDS011;67659;45.554;11.812;2023-04-24T08:51:52;8.93;;;4.63;;
71671;SDS011;67659;45.554;11.812;2023-04-24T08:54:18;9.55;;;4.65;;
71671;SDS011;67659;45.554;11.812;2023-04-24T08:56:57;10.00;;;5.00;;
71671;SDS011;67659;45.554;11.812;2023-04-24T08:59:28;11.27;;;4.22;;
71671;SDS011;67659;45.554;11.812;2023-04-24T09:01:55;9.70;;;4.43;;
71671;SDS011;67659;45.554;11.812;2023-04-24T09:04:22;8.93;;;4.30;;
71671;SDS011;67659;45.554;11.812;2023-04-24T09:06:51;8.73;;;4.38;;
71671;SDS011;67659;45.554;11.812;2023-04-24T09:09:20;9.80;;;4.07;;
71671;SDS011;67659;45.554;11.812;2023-04-24T09:11:49;7.75;;;4.30;;
71671;SDS011;67659;45.554;11.812;2023-04-24T09:14:15;8.98;;;4.32;;
71671;SDS011;67659;45.554;11.812;2023-04-24T09:16:42;8.33;;;4.20;;
71671;SDS011;67659;45.554;11.812;2023-04-24T09:19:08;8.77;;;4.15;;
71671;SDS011;67659;45.554;11.812;2023-04-24T09:21:35;10.13;;;4.20;;
71671;SDS011;67659;45.554;11.812;2023-04-24T09:24:02;7.57;;;3.92;;
71671;SDS011;67659;45.554;11.812;2023-04-24T09:26:30;8.77;;;4.23;;
71671;SDS011;67659;45.554;11.812;2023-04-24T09:28:57;9.43;;;4.00;;
71671;SDS011;67659;45.554;11.812;2023-04-24T09:31:24;7.75;;;4.13;;
71671;SDS011;67659;45.554;11.812;2023-04-24T09:33:55;9.88;;;4.00;;
71671;SDS011;67659;45.554;11.812;2023-04-24T09:36:30;7.97;;;3.85;;
71671;SDS011;67659;45.554;11.812;2023-04-24T09:38:59;8.50;;;4.40;;
71671;SDS011;67659;45.554;11.812;2023-04-24T09:41:27;9.30;;;4.72;;
71671;SDS011;67659;45.554;11.812;2023-04-24T09:43:54;9.40;;;4.38;;
71671;SDS011;67659;45.554;11.812;2023-04-24T09:46:21;7.88;;;3.95;;
71671;SDS011;67659;45.554;11.812;2023-04-24T09:48:54;13.52;;;4.65;;
71671;SDS011;67659;45.554;11.812;2023-04-24T09:51:32;11.20;;;4.90;;
71671;SDS011;67659;45.554;11.812;2023-04-24T09:54:01;9.88;;;4.40;;
71671;SDS011;67659;45.554;11.812;2023-04-24T09:56:32;8.80;;;4.35;;
71671;SDS011;67659;45.554;11.812;2023-04-24T09:59:06;11.18;;;4.47;;
71671;SDS011;67659;45.554;11.812;2023-04-24T10:01:33;7.43;;;4.03;;
71671;SDS011;67659;45.554;11.812;2023-04-24T10:03:59;8.63;;;3.80;;
71671;SDS011;67659;45.554;11.812;2023-04-24T10:06:34;9.70;;;4.82;;
71671;SDS011;67659;45.554;11.812;2023-04-24T10:09:01;37.72;;;25.98;;
71671;SDS011;67659;45.554;11.812;2023-04-24T10:11:28;15.38;;;8.40;;
71671;SDS011;67659;45.554;11.812;2023-04-24T10:13:55;11.70;;;6.45;;
71671;SDS011;67659;45.554;11.812;2023-04-24T10:16:22;13.97;;;6.50;;
71671;SDS011;67659;45.554;11.812;2023-04-24T10:18:49;11.50;;;7.30;;
71671;SDS011;67659;45.554;11.812;2023-04-24T10:21:16;14.13;;;8.15;;
71671;SDS011;67659;45.554;11.812;2023-04-24T10:23:42;18.80;;;11.02;;
71671;SDS011;67659;45.554;11.812;2023-04-24T10:26:12;20.40;;;13.05;;
71671;SDS011;67659;45.554;11.812;2023-04-24T10:28:44;22.57;;;14.40;;
71671;SDS011;67659;45.554;11.812;2023-04-24T10:31:11;26.23;;;16.73;;
71671;SDS011;67659;45.554;11.812;2023-04-24T10:33:39;24.55;;;15.65;;
71671;SDS011;67659;45.554;11.812;2023-04-24T10:36:08;44.03;;;21.70;;
71671;SDS011;67659;45.554;11.812;2023-04-24T10:38:36;38.60;;;18.88;;
71671;SDS011;67659;45.554;11.812;2023-04-24T10:41:07;31.23;;;15.93;;
71671;SDS011;67659;45.554;11.812;2023-04-24T10:43:35;51.50;;;24.20;;
71671;SDS011;67659;45.554;11.812;2023-04-24T10:46:03;43.33;;;21.45;;
71671;SDS011;67659;45.554;11.812;2023-04-24T10:48:31;43.75;;;20.17;;
71671;SDS011;67659;45.554;11.812;2023-04-24T10:50:57;40.67;;;19.65;;
71671;SDS011;67659;45.554;11.812;2023-04-24T10:53:24;38.80;;;17.53;;
71671;SDS011;67659;45.554;11.812;2023-04-24T11:01:26;50.45;;;23.40;;
71671;SDS011;67659;45.554;11.812;2023-04-24T11:03:55;40.13;;;20.52;;
71671;SDS011;67659;45.554;11.812;2023-04-24T11:09:08;37.67;;;18.88;;
71671;SDS011;67659;45.554;11.812;2023-04-24T11:11:37;36.42;;;18.85;;
71671;SDS011;67659;45.554;11.812;2023-04-24T11:14:09;36.22;;;18.77;;
71671;SDS011;67659;45.554;11.812;2023-04-24T11:16:39;41.45;;;19.48;;
71671;SDS011;67659;45.554;11.812;2023-04-24T11:19:18;35.87;;;17.80;;
71671;SDS011;67659;45.554;11.812;2023-04-24T11:24:26;37.53;;;18.02;;
71671;SDS011;67659;45.554;11.812;2023-04-24T11:26:55;36.58;;;18.88;;
71671;SDS011;67659;45.554;11.812;2023-04-24T11:34:47;29.40;;;15.10;;
71671;SDS011;67659;45.554;11.812;2023-04-24T11:37:16;30.48;;;15.50;;
71671;SDS011;67659;45.554;11.812;2023-04-24T11:39:42;29.45;;;16.25;;
71671;SDS011;67659;45.554;11.812;2023-04-24T11:42:09;26.30;;;14.55;;
71671;SDS011;67659;45.554;11.812;2023-04-24T11:44:35;23.67;;;13.87;;
71671;SDS011;67659;45.554;11.812;2023-04-24T11:47:04;25.02;;;13.15;;
71671;SDS011;67659;45.554;11.812;2023-04-24T11:49:32;26.40;;;13.05;;
71671;SDS011;67659;45.554;11.812;2023-04-24T11:51:59;25.73;;;11.32;;
71671;SDS011;67659;45.554;11.812;2023-04-24T11:54:26;25.30;;;10.90;;
71671;SDS011;67659;45.554;11.812;2023-04-24T11:56:52;21.03;;;11.00;;
71671;SDS011;67659;45.554;11.812;2023-04-24T11:59:18;19.45;;;9.63;;
71671;SDS011;67659;45.554;11.812;2023-04-24T12:01:45;17.52;;;9.55;;
71671;SDS011;67659;45.554;11.812;2023-04-24T12:04:12;20.88;;;9.48;;
71671;SDS011;67659;45.554;11.812;2023-04-24T12:06:39;17.65;;;9.18;;
71671;SDS011;67659;45.554;11.812;2023-04-24T12:09:05;18.40;;;8.90;;
71671;SDS011;67659;45.554;11.812;2023-04-24T12:11:34;16.92;;;8.65;;
71671;SDS011;67659;45.554;11.812;2023-04-24T12:14:09;17.42;;;7.88;;
71671;SDS011;67659;45.554;11.812;2023-04-24T12:16:36;16.50;;;8.23;;
71671;SDS011;67659;45.554;11.812;2023-04-24T12:19:03;15.23;;;7.88;;
71671;SDS011;67659;45.554;11.812;2023-04-24T12:21:31;16.87;;;7.90;;
71671;SDS011;67659;45.554;11.812;2023-04-24T12:23:57;14.50;;;7.78;;
71671;SDS011;67659;45.554;11.812;2023-04-24T12:26:23;16.35;;;8.07;;
71671;SDS011;67659;45.554;11.812;2023-04-24T12:28:50;14.70;;;7.75;;
71671;SDS011;67659;45.554;11.812;2023-04-24T12:31:16;13.73;;;7.53;;
71671;SDS011;67659;45.554;11.812;2023-04-24T12:33:42;16.17;;;7.70;;
71671;SDS011;67659;45.554;11.812;2023-04-24T12:36:10;14.68;;;7.60;;
71671;SDS011;67659;45.554;11.812;2023-04-24T12:38:39;15.10;;;6.82;;
71671;SDS011;67659;45.554;11.812;2023-04-24T12:41:11;14.63;;;7.20;;
71671;SDS011;67659;45.554;11.812;2023-04-24T12:43:38;12.10;;;6.67;;
71671;SDS011;67659;45.554;11.812;2023-04-24T12:46:04;16.27;;;7.10;;
71671;SDS011;67659;45.554;11.812;2023-04-24T12:48:30;14.63;;;6.10;;
71671;SDS011;67659;45.554;11.812;2023-04-24T12:50:57;14.90;;;7.20;;
71671;SDS011;67659;45.554;11.812;2023-04-24T12:53:26;12.57;;;6.88;;
71671;SDS011;67659;45.554;11.812;2023-04-24T12:55:54;13.00;;;6.43;;
71671;SDS011;67659;45.554;11.812;2023-04-24T12:58:21;12.55;;;6.10;;
71671;SDS011;67659;45.554;11.812;2023-04-24T13:00:47;13.35;;;6.10;;
71671;SDS011;67659;45.554;11.812;2023-04-24T13:05:42;11.73;;;6.13;;
71671;SDS011;67659;45.554;11.812;2023-04-24T13:08:09;12.03;;;6.03;;
71671;SDS011;67659;45.554;11.812;2023-04-24T13:10:35;11.13;;;5.63;;
71671;SDS011;67659;45.554;11.812;2023-04-24T13:13:01;10.30;;;5.10;;
71671;SDS011;67659;45.554;11.812;2023-04-24T13:15:28;11.60;;;5.55;;
71671;SDS011;67659;45.554;11.812;2023-04-24T13:17:54;12.10;;;5.10;;
71671;SDS011;67659;45.554;11.812;2023-04-24T13:20:20;9.93;;;4.97;;
71671;SDS011;67659;45.554;11.812;2023-04-24T13:22:48;9.98;;;5.03;;
71671;SDS011;67659;45.554;11.812;2023-04-24T13:25:14;10.23;;;4.75;;
71671;SDS011;67659;45.554;11.812;2023-04-24T13:27:42;9.20;;;4.72;;
71671;SDS011;67659;45.554;11.812;2023-04-24T13:30:10;10.60;;;4.80;;
71671;SDS011;67659;45.554;11.812;2023-04-24T13:32:37;9.07;;;4.60;;
71671;SDS011;67659;45.554;11.812;2023-04-24T13:35:02;9.68;;;4.18;;
71671;SDS011;67659;45.554;11.812;2023-04-24T13:37:29;9.73;;;4.50;;
71671;SDS011;67659;45.554;11.812;2023-04-24T13:39:55;9.37;;;4.30;;
71671;SDS011;67659;45.554;11.812;2023-04-24T13:42:20;8.93;;;4.40;;
71671;SDS011;67659;45.554;11.812;2023-04-24T13:44:46;9.48;;;4.43;;
71671;SDS011;67659;45.554;11.812;2023-04-24T13:47:12;9.68;;;4.25;;
71671;SDS011;67659;45.554;11.812;2023-04-24T13:49:38;6.73;;;2.70;;
71671;SDS011;67659;45.554;11.812;2023-04-24T13:52:04;6.78;;;2.47;;
71671;SDS011;67659;45.554;11.812;2023-04-24T13:54:30;5.40;;;2.25;;
71671;SDS011;67659;45.554;11.812;2023-04-24T13:56:57;5.60;;;2.15;;
71671;SDS011;67659;45.554;11.812;2023-04-24T13:59:23;5.30;;;2.00;;
71671;SDS011;67659;45.554;11.812;2023-04-24T14:01:50;5.30;;;1.95;;
71671;SDS011;67659;45.554;11.812;2023-04-24T14:04:18;4.32;;;1.80;;
71671;SDS011;67659;45.554;11.812;2023-04-24T14:06:44;4.20;;;1.80;;
71671;SDS011;67659;45.554;11.812;2023-04-24T14:09:10;4.90;;;1.77;;
71671;SDS011;67659;45.554;11.812;2023-04-24T14:11:38;3.25;;;1.67;;
71671;SDS011;67659;45.554;11.812;2023-04-24T14:14:04;4.28;;;1.83;;
71671;SDS011;67659;45.554;11.812;2023-04-24T14:16:30;4.00;;;1.60;;
71671;SDS011;67659;45.554;11.812;2023-04-24T14:18:56;4.60;;;1.70;;
71671;SDS011;67659;45.554;11.812;2023-04-24T14:21:22;4.63;;;1.80;;
71671;SDS011;67659;45.554;11.812;2023-04-24T14:23:48;3.80;;;1.60;;
71671;SDS011;67659;45.554;11.812;2023-04-24T14:26:14;4.13;;;1.80;;
71671;SDS011;67659;45.554;11.812;2023-04-24T14:28:40;3.95;;;1.70;;
71671;SDS011;67659;45.554;11.812;2023-04-24T14:31:06;4.03;;;1.80;;
71671;SDS011;67659;45.554;11.812;2023-04-24T14:33:33;4.65;;;1.90;;
71671;SDS011;67659;45.554;11.812;2023-04-24T14:35:59;4.03;;;1.70;;
71671;SDS011;67659;45.554;11.812;2023-04-24T14:38:24;3.75;;;1.73;;
71671;SDS011;67659;45.554;11.812;2023-04-24T14:40:50;4.68;;;1.75;;
71671;SDS011;67659;45.554;11.812;2023-04-24T14:43:16;4.70;;;1.77;;
71671;SDS011;67659;45.554;11.812;2023-04-24T14:45:42;4.57;;;1.90;;